Time;durP1;ratioP1;P1;durP2;ratioP2;P2;SDS_P1;SDS_P2;PMS_P1;PMS_P2;Temp;Humidity;BMP_temperature;BMP_pressure;BME280_temperature;BME280_humidity;BME280_pressure;Samples;Min_cycle;Max_cycle;Signal;HPM_P1;HPM_P2
2022/06/08 00:00:24;;;;;;;11.73;7.30;;;19.70;91.10;;;;;;5064196;28;20245;-74
2022/06/08 00:03:00;;;;;;;11.80;6.77;;;19.70;91.00;;;;;;5052549;28;20204;-74
2022/06/08 00:05:27;;;;;;;8.60;6.00;;;19.70;90.90;;;;;;5065970;28;20207;-73
2022/06/08 00:07:54;;;;;;;7.07;6.37;;;19.70;90.70;;;;;;5071055;28;20204;-74
2022/06/08 00:10:25;;;;;;;6.13;5.53;;;19.60;90.60;;;;;;5065552;28;20220;-74
2022/06/08 00:12:52;;;;;;;10.37;5.80;;;19.60;90.60;;;;;;5052845;28;20217;-74
2022/06/08 00:15:20;;;;;;;9.67;6.17;;;19.60;90.70;;;;;;5048066;28;20634;-74
2022/06/08 00:17:48;;;;;;;9.90;5.93;;;19.60;90.80;;;;;;5049710;28;20213;-75
2022/06/08 00:20:15;;;;;;;8.87;6.30;;;19.60;90.80;;;;;;5065790;28;20538;-74
2022/06/08 00:22:43;;;;;;;11.47;6.73;;;19.60;90.80;;;;;;5068861;28;20192;-74
2022/06/08 00:25:11;;;;;;;17.27;6.80;;;19.60;90.80;;;;;;5055672;28;20632;-74
2022/06/08 00:27:38;;;;;;;10.03;6.33;;;19.60;90.80;;;;;;5047274;28;20204;-74
2022/06/08 00:30:08;;;;;;;7.80;6.13;;;19.50;90.80;;;;;;5054412;28;20232;-74
2022/06/08 00:32:35;;;;;;;7.97;5.00;;;19.50;90.80;;;;;;5041627;28;20315;-74
2022/06/08 00:35:04;;;;;;;8.27;4.50;;;19.50;90.80;;;;;;5039552;28;20236;-74
2022/06/08 00:37:31;;;;;;;10.30;5.30;;;19.50;90.70;;;;;;5055816;28;20204;-74
2022/06/08 00:39:59;;;;;;;11.60;6.10;;;19.50;90.80;;;;;;5052016;28;20619;-74
2022/06/08 00:42:26;;;;;;;10.10;5.33;;;19.50;90.80;;;;;;5050445;28;20204;-74
2022/06/08 00:45:00;;;;;;;12.37;5.63;;;19.50;90.80;;;;;;5069989;28;20584;-74
2022/06/08 00:47:31;;;;;;;7.07;5.60;;;19.40;90.70;;;;;;5052442;28;20293;-74
2022/06/08 00:50:14;;;;;;;14.03;5.93;;;19.50;90.80;;;;;;5048979;28;20218;-74
2022/06/08 00:52:42;;;;;;;10.77;6.13;;;19.40;90.60;;;;;;5046100;28;20300;-74
2022/06/08 00:55:12;;;;;;;8.57;6.83;;;19.40;90.60;;;;;;5053017;28;20243;-74
2022/06/08 00:57:48;;;;;;;7.87;6.00;;;19.40;90.80;;;;;;5085392;28;20203;-74
2022/06/08 01:00:33;;;;;;;8.40;5.60;;;19.40;90.80;;;;;;5072744;28;20219;-74
2022/06/08 01:03:00;;;;;;;9.80;6.07;;;19.40;90.80;;;;;;5071151;28;20271;-74
2022/06/08 01:05:42;;;;;;;12.57;6.17;;;19.40;90.80;;;;;;5062490;28;20228;-74
2022/06/08 01:08:13;;;;;;;7.07;4.70;;;19.40;90.80;;;;;;5051269;28;20227;-74
2022/06/08 01:10:44;;;;;;;8.13;5.30;;;19.30;90.70;;;;;;5052946;28;20705;-74
2022/06/08 01:13:13;;;;;;;6.17;4.97;;;19.30;90.70;;;;;;5049865;28;20265;-74
2022/06/08 01:15:42;;;;;;;7.93;5.50;;;19.30;90.80;;;;;;5055947;28;20213;-74
2022/06/08 01:18:13;;;;;;;10.23;5.47;;;19.30;90.80;;;;;;5063118;28;20232;-74
2022/06/08 01:20:46;;;;;;;8.33;5.53;;;19.20;90.70;;;;;;5064512;28;20293;-74
2022/06/08 01:23:16;;;;;;;8.57;6.53;;;19.20;90.70;;;;;;5080070;28;20540;-74
2022/06/08 01:26:26;;;;;;;12.43;7.87;;;19.20;90.70;;;;;;5079939;28;20350;-74
2022/06/08 01:29:13;;;;;;;9.17;6.87;;;19.20;90.90;;;;;;5009215;28;20679;-73
2022/06/08 01:31:49;;;;;;;12.80;6.47;;;19.20;91.00;;;;;;5068458;28;20197;-73
2022/06/08 01:34:38;;;;;;;10.50;7.70;;;19.20;90.90;;;;;;5072640;28;20308;-73
2022/06/08 01:37:08;;;;;;;10.37;6.63;;;19.10;90.90;;;;;;5062887;28;20282;-73
2022/06/08 01:40:07;;;;;;;12.67;7.57;;;19.10;90.90;;;;;;5065978;28;20205;-73
2022/06/08 01:42:41;;;;;;;23.27;9.23;;;19.10;91.00;;;;;;5048097;28;20549;-74
2022/06/08 01:45:33;;;;;;;21.07;8.63;;;19.00;91.10;;;;;;5070040;28;20220;-74
2022/06/08 01:48:00;;;;;;;14.47;7.70;;;19.00;91.20;;;;;;5065203;28;20195;-74
2022/06/08 01:50:44;;;;;;;17.53;7.97;;;19.00;91.20;;;;;;5049670;28;20211;-73
2022/06/08 01:53:49;;;;;;;15.73;8.20;;;19.10;91.40;;;;;;5061436;28;20206;-74
2022/06/08 01:56:39;;;;;;;12.50;7.87;;;19.10;91.50;;;;;;5069113;28;20237;-73
2022/06/08 01:59:12;;;;;;;18.97;9.90;;;19.10;91.50;;;;;;5040124;28;20629;-73
2022/06/08 02:01:39;;;;;;;15.73;8.40;;;19.10;91.50;;;;;;5028919;28;20231;-73
2022/06/08 02:04:33;;;;;;;17.07;8.50;;;19.10;91.50;;;;;;5025614;28;20632;-73
2022/06/08 02:07:27;;;;;;;25.93;9.73;;;19.10;91.50;;;;;;5048881;28;20214;-73
2022/06/08 02:10:07;;;;;;;17.00;9.73;;;19.10;91.50;;;;;;5045159;28;20567;-73
2022/06/08 02:12:38;;;;;;;28.07;12.00;;;19.10;91.50;;;;;;5048685;28;20196;-73
2022/06/08 02:15:12;;;;;;;22.77;11.20;;;19.20;91.60;;;;;;5045925;28;20207;-73
2022/06/08 02:17:52;;;;;;;13.13;10.87;;;19.20;91.60;;;;;;5048273;28;20299;-73
2022/06/08 02:20:33;;;;;;;17.27;11.30;;;19.20;91.60;;;;;;5054627;28;20244;-73
2022/06/08 02:23:23;;;;;;;24.17;11.27;;;19.20;91.70;;;;;;5044447;28;20888;-73
2022/06/08 02:26:02;;;;;;;16.17;10.40;;;19.20;91.70;;;;;;5041727;28;20292;-73
2022/06/08 02:28:34;;;;;;;19.57;10.03;;;19.20;91.70;;;;;;5067341;28;20200;-73
2022/06/08 02:31:17;;;;;;;25.07;7.87;;;19.20;91.60;;;;;;5045921;28;20351;-73
2022/06/08 02:36:49;;;;;;;22.70;8.50;;;19.20;91.40;;;;;;5049721;28;20267;-73
2022/06/08 02:39:16;;;;;;;17.13;7.27;;;19.10;91.40;;;;;;5045533;28;20220;-73
2022/06/08 02:41:48;;;;;;;14.93;6.47;;;19.10;91.40;;;;;;5038355;28;20246;-73
2022/06/08 02:44:27;;;;;;;16.10;6.97;;;19.10;91.40;;;;;;5051738;28;20338;-73
2022/06/08 02:47:19;;;;;;;21.43;7.30;;;19.10;91.30;;;;;;5060832;28;20248;-73
2022/06/08 02:49:46;;;;;;;22.47;7.03;;;19.10;91.30;;;;;;5068447;28;20207;-73
2022/06/08 02:52:21;;;;;;;24.67;6.77;;;19.10;91.30;;;;;;5048321;28;20287;-73
2022/06/08 02:54:54;;;;;;;17.03;6.03;;;19.10;91.20;;;;;;5050102;28;20242;-73
2022/06/08 02:57:24;;;;;;;22.93;6.90;;;19.10;91.20;;;;;;5070453;28;20215;-73
2022/06/08 03:00:02;;;;;;;12.50;6.23;;;19.10;91.20;;;;;;5084408;28;20607;-73
2022/06/08 03:02:40;;;;;;;14.83;6.07;;;19.10;91.20;;;;;;5068400;28;20905;-73
2022/06/08 03:05:17;;;;;;;14.13;5.90;;;19.10;91.20;;;;;;5073397;28;20207;-73
2022/06/08 03:08:19;;;;;;;15.17;5.97;;;19.00;91.10;;;;;;5063923;28;20205;-73
2022/06/08 03:10:49;;;;;;;10.63;6.03;;;19.00;91.10;;;;;;5050217;28;20249;-73
2022/06/08 03:13:37;;;;;;;15.20;5.80;;;19.00;91.10;;;;;;5057414;28;20657;-73
2022/06/08 03:16:07;;;;;;;19.17;6.70;;;18.90;91.10;;;;;;5051090;28;20199;-73
2022/06/08 03:18:35;;;;;;;14.93;6.53;;;18.90;91.20;;;;;;5055862;28;20515;-73
2022/06/08 03:21:05;;;;;;;11.03;6.47;;;18.90;91.20;;;;;;5050028;28;20854;-73
2022/06/08 03:23:34;;;;;;;13.47;6.00;;;19.00;91.40;;;;;;5067972;28;20295;-73
2022/06/08 03:26:03;;;;;;;15.77;6.47;;;19.00;91.40;;;;;;5055825;28;20238;-73
2022/06/08 03:28:33;;;;;;;15.60;5.77;;;18.90;91.50;;;;;;5050798;28;20235;-73
2022/06/08 03:31:00;;;;;;;11.70;6.10;;;19.00;91.50;;;;;;5065973;28;20209;-73
2022/06/08 03:33:29;;;;;;;14.87;6.47;;;19.00;91.60;;;;;;5087756;28;20617;-73
2022/06/08 03:35:58;;;;;;;16.20;6.27;;;19.00;91.50;;;;;;5067115;28;20277;-73
2022/06/08 03:38:25;;;;;;;13.47;5.90;;;19.00;91.40;;;;;;5059119;28;20297;-73
2022/06/08 03:40:53;;;;;;;11.77;5.43;;;18.90;91.30;;;;;;5077704;28;20230;-73
2022/06/08 03:43:20;;;;;;;19.97;6.13;;;18.90;91.60;;;;;;5089885;28;20214;-73
2022/06/08 03:45:51;;;;;;;13.53;5.87;;;18.90;91.20;;;;;;5073978;28;20201;-73
2022/06/08 03:48:19;;;;;;;16.13;6.90;;;18.90;91.10;;;;;;5075516;28;20204;-74
2022/06/08 03:50:51;;;;;;;10.20;5.53;;;18.90;91.10;;;;;;5074046;28;20211;-73
2022/06/08 03:53:34;;;;;;;13.20;6.10;;;18.90;91.20;;;;;;5077665;28;20232;-73
2022/06/08 03:56:06;;;;;;;12.60;6.03;;;18.90;91.30;;;;;;5072649;28;20235;-73
2022/06/08 03:58:33;;;;;;;13.83;6.17;;;18.90;91.30;;;;;;5071786;28;20979;-74
2022/06/08 04:01:08;;;;;;;10.37;5.73;;;18.90;91.30;;;;;;5074530;28;20226;-73
2022/06/08 04:03:37;;;;;;;9.73;5.87;;;19.00;91.20;;;;;;5070527;28;20198;-73
2022/06/08 04:06:05;;;;;;;7.57;5.23;;;19.00;91.20;;;;;;5089704;28;20627;-73
2022/06/08 04:08:37;;;;;;;9.37;5.63;;;19.10;91.30;;;;;;5090702;28;20639;-73
2022/06/08 04:11:06;;;;;;;10.47;5.77;;;19.10;91.40;;;;;;5073745;28;20248;-73
2022/06/08 04:13:34;;;;;;;8.80;6.00;;;19.20;91.60;;;;;;5089815;28;20219;-73
2022/06/08 04:16:08;;;;;;;11.23;6.27;;;19.30;91.70;;;;;;5059491;28;20211;-73
2022/06/08 04:18:40;;;;;;;10.70;5.93;;;19.40;91.70;;;;;;5083883;28;20226;-73
2022/06/08 04:21:10;;;;;;;6.63;5.93;;;19.60;91.70;;;;;;5060937;28;20669;-73
2022/06/08 04:23:51;;;;;;;9.33;6.20;;;19.70;91.60;;;;;;5061521;28;20647;-73
2022/06/08 04:26:21;;;;;;;9.30;5.27;;;19.80;91.50;;;;;;5073406;28;20195;-73
2022/06/08 04:28:53;;;;;;;12.90;5.53;;;19.90;91.40;;;;;;5065908;28;20202;-73
2022/06/08 04:31:20;;;;;;;13.67;5.27;;;20.00;91.20;;;;;;5087312;28;20238;-73
2022/06/08 04:33:53;;;;;;;7.37;5.60;;;20.00;91.10;;;;;;5069065;28;20218;-73
2022/06/08 04:36:28;;;;;;;10.17;5.23;;;20.10;91.20;;;;;;5067081;28;20543;-74
2022/06/08 04:38:56;;;;;;;9.90;5.73;;;20.10;91.20;;;;;;5076031;28;20202;-73
2022/06/08 04:41:26;;;;;;;11.27;5.77;;;20.20;91.30;;;;;;5075572;28;20315;-73
2022/06/08 04:43:55;;;;;;;14.40;5.37;;;20.30;91.30;;;;;;5070897;28;20260;-73
2022/06/08 04:46:24;;;;;;;13.17;5.10;;;20.40;91.30;;;;;;5060564;28;20205;-73
2022/06/08 04:48:53;;;;;;;11.20;5.67;;;20.40;91.20;;;;;;5068454;28;20208;-73
2022/06/08 04:51:25;;;;;;;14.20;5.70;;;20.50;91.20;;;;;;5064722;28;20766;-73
2022/06/08 04:53:52;;;;;;;7.10;4.60;;;20.60;91.10;;;;;;5075261;28;20208;-73
2022/06/08 04:56:21;;;;;;;7.60;4.60;;;20.70;91.00;;;;;;5070621;28;20329;-73
2022/06/08 04:58:54;;;;;;;7.50;5.13;;;20.80;90.80;;;;;;5074753;28;20236;-73
2022/06/08 05:01:24;;;;;;;5.83;4.43;;;20.90;90.70;;;;;;5067293;28;20291;-73
2022/06/08 05:03:52;;;;;;;5.63;4.17;;;21.00;90.60;;;;;;5054731;28;20224;-72
2022/06/08 05:06:20;;;;;;;9.57;5.23;;;21.10;90.50;;;;;;5072376;28;20216;-73
2022/06/08 05:08:48;;;;;;;7.27;4.73;;;21.20;90.30;;;;;;5075332;28;20263;-73
2022/06/08 05:11:20;;;;;;;6.60;5.13;;;21.30;90.20;;;;;;5051910;28;20217;-73
2022/06/08 05:13:48;;;;;;;7.13;4.63;;;21.40;90.20;;;;;;5067437;28;20228;-73
2022/06/08 05:16:17;;;;;;;9.10;4.83;;;21.80;89.70;;;;;;5063758;28;20205;-73
2022/06/08 05:18:48;;;;;;;10.67;4.67;;;22.00;88.60;;;;;;5074388;28;20208;-73
2022/06/08 05:21:18;;;;;;;6.07;5.03;;;22.20;87.70;;;;;;5066444;28;20553;-74
2022/06/08 05:23:49;;;;;;;9.73;4.37;;;22.30;87.30;;;;;;5059038;28;20232;-74
2022/06/08 05:26:22;;;;;;;9.63;5.27;;;22.40;86.80;;;;;;5084483;28;20208;-73
2022/06/08 05:28:49;;;;;;;15.17;5.40;;;22.40;86.10;;;;;;5059792;28;20197;-74
2022/06/08 05:31:17;;;;;;;13.10;5.73;;;22.40;85.50;;;;;;5070425;28;20205;-73
2022/06/08 05:33:48;;;;;;;11.33;5.17;;;22.50;85.50;;;;;;5075657;28;20641;-73
2022/06/08 05:36:18;;;;;;;9.63;4.90;;;22.50;85.80;;;;;;5071227;28;20234;-73
2022/06/08 05:38:49;;;;;;;14.57;6.23;;;22.50;86.50;;;;;;5069037;28;20220;-74
2022/06/08 05:41:18;;;;;;;10.87;5.10;;;22.60;85.40;;;;;;5073850;28;20240;-74
2022/06/08 05:43:46;;;;;;;9.20;5.90;;;22.60;85.30;;;;;;5071019;28;20205;-74
2022/06/08 05:46:16;;;;;;;6.40;5.30;;;22.70;85.80;;;;;;5085313;28;20197;-74
2022/06/08 05:48:47;;;;;;;8.40;6.20;;;22.80;86.30;;;;;;5072312;28;20204;-74
2022/06/08 05:51:14;;;;;;;13.80;6.60;;;22.90;86.40;;;;;;5072753;28;20240;-73
2022/06/08 05:53:42;;;;;;;12.90;5.77;;;23.00;86.20;;;;;;5075109;28;20208;-74
2022/06/08 05:56:10;;;;;;;14.23;6.57;;;23.10;86.00;;;;;;5083727;28;20237;-74
2022/06/08 05:58:41;;;;;;;9.23;6.40;;;23.20;85.70;;;;;;5063763;28;20224;-74
2022/06/08 06:01:09;;;;;;;10.13;6.73;;;23.40;85.40;;;;;;5058605;28;20307;-74
2022/06/08 06:03:37;;;;;;;7.37;6.43;;;23.50;84.80;;;;;;5057520;28;20218;-74
2022/06/08 06:06:04;;;;;;;9.00;6.70;;;23.60;84.20;;;;;;5075657;28;20880;-74
2022/06/08 06:08:32;;;;;;;12.27;6.97;;;23.70;84.30;;;;;;5076623;28;20209;-74
2022/06/08 06:11:10;;;;;;;13.67;7.40;;;23.90;83.40;;;;;;5080981;28;20666;-74
2022/06/08 06:13:42;;;;;;;10.60;6.97;;;24.00;82.70;;;;;;5073418;28;20210;-74
2022/06/08 06:16:15;;;;;;;11.17;7.27;;;24.10;82.30;;;;;;5067853;28;20259;-74
2022/06/08 06:18:43;;;;;;;12.70;7.00;;;24.20;82.50;;;;;;5072850;28;20244;-74
2022/06/08 06:21:25;;;;;;;9.27;6.33;;;24.40;82.30;;;;;;5083022;28;20240;-74
2022/06/08 06:24:10;;;;;;;10.70;7.23;;;24.60;81.70;;;;;;5074933;28;20208;-73
2022/06/08 06:27:06;;;;;;;9.13;7.50;;;24.70;80.90;;;;;;5073957;28;20213;-73
2022/06/08 06:29:58;;;;;;;12.13;8.23;;;24.90;80.20;;;;;;5052137;28;20241;-74
2022/06/08 06:32:51;;;;;;;11.40;8.73;;;25.10;79.20;;;;;;5077502;28;20364;-74
2022/06/08 06:35:26;;;;;;;10.13;8.83;;;25.20;78.20;;;;;;5062499;28;20223;-74
2022/06/08 06:38:00;;;;;;;9.93;8.93;;;25.30;76.50;;;;;;5087582;28;20213;-74
2022/06/08 06:40:31;;;;;;;11.10;8.83;;;25.30;77.20;;;;;;5069235;28;20296;-74
2022/06/08 06:42:59;;;;;;;12.20;10.90;;;25.40;77.60;;;;;;5070590;28;20231;-74
2022/06/08 06:45:41;;;;;;;12.57;10.70;;;25.60;76.60;;;;;;5070424;28;20190;-74
2022/06/08 06:48:26;;;;;;;13.90;10.30;;;25.70;75.50;;;;;;5084881;28;20209;-74
2022/06/08 06:51:00;;;;;;;13.23;8.83;;;25.80;75.50;;;;;;5073539;28;20214;-74
2022/06/08 06:53:27;;;;;;;11.37;8.33;;;25.80;75.20;;;;;;5082491;28;20202;-74
2022/06/08 06:55:56;;;;;;;10.17;8.47;;;25.90;75.30;;;;;;5070872;28;20237;-74
2022/06/08 06:58:36;;;;;;;9.50;8.50;;;26.00;74.90;;;;;;5072114;28;20198;-74
2022/06/08 07:01:05;;;;;;;9.17;7.97;;;26.10;73.00;;;;;;5073253;28;20216;-73
2022/06/08 07:03:35;;;;;;;11.40;7.80;;;26.20;73.10;;;;;;5057191;28;20524;-73
2022/06/08 07:06:03;;;;;;;8.50;7.70;;;26.30;73.40;;;;;;5087234;28;20218;-74
2022/06/08 07:08:31;;;;;;;8.00;7.30;;;26.40;73.40;;;;;;5072306;28;20204;-73
2022/06/08 07:13:49;;;;;;;9.67;7.47;;;26.70;72.50;;;;;;5072945;28;20697;-73
2022/06/08 07:16:16;;;;;;;8.07;4.50;;;26.80;72.20;;;;;;5072245;28;20255;-73
2022/06/08 07:18:44;;;;;;;5.40;4.07;;;26.90;70.80;;;;;;5054658;28;20216;-73
2022/06/08 07:21:12;;;;;;;8.87;4.23;;;27.00;69.90;;;;;;5086380;28;20204;-74
2022/06/08 07:23:41;;;;;;;5.83;2.83;;;27.10;69.60;;;;;;5088642;28;20208;-73
2022/06/08 07:26:08;;;;;;;3.00;1.70;;;27.20;69.50;;;;;;5060714;28;20205;-73
2022/06/08 07:28:36;;;;;;;11.17;2.20;;;27.30;66.50;;;;;;5074210;28;20563;-73
2022/06/08 07:31:03;;;;;;;2.80;1.90;;;27.40;66.10;;;;;;5072182;28;20216;-73
2022/06/08 07:33:30;;;;;;;4.20;2.90;;;27.40;65.60;;;;;;5061517;28;20600;-73
2022/06/08 07:35:57;;;;;;;7.53;4.50;;;27.50;65.80;;;;;;5093090;28;20337;-73
2022/06/08 07:38:25;;;;;;;5.37;3.40;;;27.60;66.80;;;;;;5084071;28;20213;-73
2022/06/08 07:40:53;;;;;;;6.03;3.37;;;27.70;66.50;;;;;;5068533;28;20250;-73
2022/06/08 07:43:20;;;;;;;6.47;3.60;;;27.90;65.40;;;;;;5057756;28;20219;-73
2022/06/08 07:45:48;;;;;;;7.17;4.13;;;28.00;65.70;;;;;;5070405;28;20204;-73
2022/06/08 07:51:03;;;;;;;3.47;2.80;;;28.20;64.10;;;;;;5076238;28;20304;-73
2022/06/08 07:53:30;;;;;;;2.50;1.77;;;28.30;64.10;;;;;;5066792;28;20200;-73
2022/06/08 07:55:58;;;;;;;7.13;2.53;;;28.50;63.70;;;;;;5069459;28;20242;-73
2022/06/08 07:58:32;;;;;;;3.87;2.77;;;28.60;61.90;;;;;;5070691;28;20197;-73
2022/06/08 08:00:59;;;;;;;5.83;3.23;;;28.70;61.60;;;;;;5077574;28;20300;-73
2022/06/08 08:03:27;;;;;;;2.83;2.60;;;28.70;61.30;;;;;;5060786;28;20860;-73
2022/06/08 08:05:54;;;;;;;2.57;2.37;;;28.80;61.60;;;;;;5084148;28;20200;-73
2022/06/08 08:08:22;;;;;;;3.93;3.33;;;28.90;60.30;;;;;;5085916;28;20623;-73
2022/06/08 08:10:49;;;;;;;6.50;2.37;;;28.90;59.60;;;;;;5075812;28;20208;-74
2022/06/08 08:13:17;;;;;;;3.00;2.10;;;29.00;59.50;;;;;;5071611;28;20217;-74
2022/06/08 08:15:44;;;;;;;3.60;2.43;;;29.10;59.20;;;;;;5075833;28;20211;-77
2022/06/08 08:18:12;;;;;;;2.60;2.40;;;29.20;59.00;;;;;;5074999;28;20212;-76
2022/06/08 08:20:40;;;;;;;2.03;1.50;;;29.30;58.70;;;;;;5065399;28;20204;-76
2022/06/08 08:23:07;;;;;;;3.43;1.80;;;29.30;58.20;;;;;;5075789;28;20221;-75
2022/06/08 08:25:35;;;;;;;5.43;1.70;;;29.30;57.80;;;;;;5086856;28;20194;-75
2022/06/08 08:28:03;;;;;;;1.80;1.47;;;29.50;57.70;;;;;;5067712;28;20198;-76
2022/06/08 08:30:31;;;;;;;3.23;1.43;;;29.50;56.20;;;;;;5076238;28;20251;-78
2022/06/08 08:32:59;;;;;;;1.73;1.23;;;29.60;55.70;;;;;;5053388;28;20233;-76
2022/06/08 08:35:27;;;;;;;2.60;1.67;;;29.70;55.70;;;;;;5055521;28;20210;-76
2022/06/08 08:37:56;;;;;;;1.40;1.30;;;29.70;55.40;;;;;;5070163;28;20296;-75
2022/06/08 08:40:56;;;;;;;1.50;1.40;;;29.80;55.10;;;;;;5081787;28;20196;-78
2022/06/08 08:43:31;;;;;;;2.37;1.10;;;29.90;55.40;;;;;;5043948;28;20295;-75
2022/06/08 08:46:22;;;;;;;1.90;1.10;;;30.00;54.80;;;;;;5088793;28;20207;-74
2022/06/08 08:49:23;;;;;;;4.63;1.43;;;30.10;52.80;;;;;;5053662;28;20278;-75
2022/06/08 08:51:58;;;;;;;3.17;1.10;;;30.10;53.90;;;;;;5074974;28;20804;-78
2022/06/08 08:54:30;;;;;;;1.50;1.27;;;30.10;50.80;;;;;;5069557;28;20207;-78
2022/06/08 08:57:27;;;;;;;0.70;0.70;;;30.20;51.80;;;;;;5055724;28;20264;-74
2022/06/08 08:59:55;;;;;;;0.80;0.80;;;30.20;50.80;;;;;;5064456;28;20313;-73
2022/06/08 09:05:21;;;;;;;2.63;0.93;;;30.30;49.70;;;;;;5066327;28;20241;-74
2022/06/08 09:07:48;;;;;;;2.30;1.10;;;30.40;48.80;;;;;;5031973;28;20194;-73
2022/06/08 09:10:22;;;;;;;2.27;1.00;;;30.40;48.90;;;;;;5048562;28;20202;-74
2022/06/08 09:12:50;;;;;;;1.17;1.07;;;30.40;48.80;;;;;;5067411;28;20210;-75
2022/06/08 09:15:51;;;;;;;6.20;1.03;;;30.50;49.20;;;;;;5068861;28;20260;-76
2022/06/08 09:18:29;;;;;;;1.80;1.07;;;30.50;47.80;;;;;;5054334;28;20226;-75
2022/06/08 09:20:58;;;;;;;2.40;0.90;;;30.50;49.10;;;;;;5069480;28;20212;-73
2022/06/08 09:23:39;;;;;;;1.70;1.03;;;30.60;49.50;;;;;;5065678;28;20225;-74
2022/06/08 09:26:16;;;;;;;3.60;0.90;;;30.70;48.50;;;;;;5043426;28;20213;-75
2022/06/08 09:28:47;;;;;;;1.03;1.00;;;30.70;48.00;;;;;;5067867;28;20229;-76
2022/06/08 09:31:24;;;;;;;3.47;1.30;;;30.80;48.00;;;;;;5047530;28;20201;-75
2022/06/08 09:34:05;;;;;;;1.53;0.90;;;30.80;49.00;;;;;;5065168;28;20226;-75
2022/06/08 09:36:32;;;;;;;1.60;1.13;;;31.00;48.60;;;;;;5046092;28;20203;-74
2022/06/08 09:38:59;;;;;;;3.40;1.30;;;31.10;47.90;;;;;;5055803;28;20202;-76
2022/06/08 09:41:50;;;;;;;1.53;1.13;;;31.30;48.70;;;;;;5063934;28;20190;-76
2022/06/08 09:44:28;;;;;;;1.17;0.83;;;31.40;48.60;;;;;;5032096;28;20202;-73
2022/06/08 09:53:32;;;;;;;1.53;1.07;;;31.70;46.70;;;;;;5060158;28;20268;-73
2022/06/08 09:56:20;;;;;;;1.60;1.10;;;31.80;47.10;;;;;;5050749;28;20312;-74
2022/06/08 09:59:09;;;;;;;2.20;1.40;;;31.90;47.40;;;;;;5067755;28;20289;-75
2022/06/08 10:01:39;;;;;;;1.87;1.20;;;32.00;45.90;;;;;;5058955;28;20194;-74
2022/06/08 10:04:37;;;;;;;6.40;1.40;;;32.00;46.20;;;;;;5047664;28;20663;-74
2022/06/08 10:07:19;;;;;;;1.70;1.20;;;32.10;46.40;;;;;;5050137;28;20641;-75
2022/06/08 10:10:03;;;;;;;1.80;1.27;;;32.10;45.30;;;;;;5062179;28;20314;-75
2022/06/08 10:12:36;;;;;;;2.10;1.37;;;32.10;45.10;;;;;;5063804;28;20206;-74
2022/06/08 10:15:34;;;;;;;1.47;1.13;;;31.90;42.50;;;;;;5049640;28;20209;-74
2022/06/08 10:18:06;;;;;;;1.17;1.00;;;31.50;44.90;;;;;;5059172;28;20230;-74
2022/06/08 10:20:40;;;;;;;1.57;0.93;;;31.50;46.10;;;;;;5064015;28;20276;-72
2022/06/08 10:23:28;;;;;;;1.10;1.00;;;31.60;46.60;;;;;;5042534;28;20220;-74
2022/06/08 10:26:09;;;;;;;2.60;1.10;;;31.80;45.90;;;;;;5042919;28;20316;-74
2022/06/08 10:28:45;;;;;;;1.57;1.00;;;32.00;45.50;;;;;;5063259;28;20197;-74
2022/06/08 10:31:21;;;;;;;2.00;0.90;;;32.30;45.40;;;;;;5048565;28;20206;-74
2022/06/08 10:34:11;;;;;;;1.33;1.13;;;32.50;45.50;;;;;;5047050;28;20526;-74
2022/06/08 10:36:44;;;;;;;1.47;0.90;;;32.70;44.10;;;;;;5048727;28;20252;-74
2022/06/08 10:39:13;;;;;;;1.87;1.00;;;32.80;43.80;;;;;;5041382;28;20202;-74
2022/06/08 10:44:44;;;;;;;1.23;1.13;;;33.00;44.60;;;;;;5064959;28;20216;-74
2022/06/08 10:47:14;;;;;;;1.60;0.70;;;33.00;43.60;;;;;;5050007;28;20637;-73
2022/06/08 10:49:45;;;;;;;2.97;0.97;;;33.00;41.40;;;;;;5066748;28;20225;-74
2022/06/08 10:52:42;;;;;;;1.17;0.80;;;32.90;40.50;;;;;;5046934;28;20206;-74
2022/06/08 10:55:17;;;;;;;0.80;0.80;;;32.60;41.60;;;;;;5039569;28;20233;-73
2022/06/08 10:58:04;;;;;;;1.90;0.90;;;32.60;43.20;;;;;;5088782;28;20193;-73
2022/06/08 11:00:58;;;;;;;1.37;0.83;;;32.60;43.60;;;;;;5084572;28;20292;-74
2022/06/08 11:03:32;;;;;;;1.00;0.87;;;32.50;43.80;;;;;;5062776;28;20221;-73
2022/06/08 11:06:00;;;;;;;1.03;0.93;;;32.60;43.70;;;;;;5074184;28;20568;-73
2022/06/08 11:08:56;;;;;;;0.80;0.60;;;32.70;43.60;;;;;;5083233;28;20185;-73
2022/06/08 11:11:49;;;;;;;1.67;0.70;;;32.80;43.50;;;;;;5062637;28;20198;-73
2022/06/08 11:14:48;;;;;;;1.20;0.87;;;32.90;43.40;;;;;;5082641;28;20211;-74
2022/06/08 11:17:26;;;;;;;1.50;0.87;;;33.00;43.50;;;;;;5085619;28;20228;-74
2022/06/08 11:20:01;;;;;;;1.13;1.03;;;33.10;44.00;;;;;;5071061;28;20624;-73
2022/06/08 11:22:37;;;;;;;1.50;0.97;;;33.20;42.70;;;;;;5067103;28;20635;-73
2022/06/08 11:25:11;;;;;;;0.93;0.70;;;33.00;40.50;;;;;;5050300;28;20200;-73
2022/06/08 11:27:40;;;;;;;2.13;0.90;;;32.90;42.00;;;;;;5063210;28;20189;-73
2022/06/08 11:30:23;;;;;;;2.00;0.80;;;32.80;43.00;;;;;;5070885;28;20233;-73
2022/06/08 11:32:50;;;;;;;2.17;0.60;;;32.70;43.20;;;;;;5067473;28;20200;-73
2022/06/08 11:35:55;;;;;;;2.23;1.10;;;32.60;42.40;;;;;;5083724;28;20237;-73
2022/06/08 11:38:44;;;;;;;0.80;0.80;;;32.60;41.80;;;;;;5066821;28;20194;-73
2022/06/08 11:41:36;;;;;;;0.83;0.83;;;32.60;43.40;;;;;;5063558;28;20300;-74
2022/06/08 11:44:12;;;;;;;1.23;1.00;;;32.70;43.40;;;;;;5068497;28;20235;-73
2022/06/08 11:46:45;;;;;;;0.70;0.70;;;32.70;42.70;;;;;;5083602;28;21367;-73
2022/06/08 11:49:39;;;;;;;1.53;0.97;;;32.80;42.30;;;;;;5083938;28;20201;-73
2022/06/08 11:52:24;;;;;;;1.00;0.70;;;32.90;43.00;;;;;;5065728;28;20209;-73
2022/06/08 11:55:17;;;;;;;0.80;0.80;;;33.00;42.30;;;;;;5080416;28;20640;-73
2022/06/08 11:58:08;;;;;;;1.57;0.90;;;33.20;42.30;;;;;;5053648;28;20209;-73
2022/06/08 12:00:57;;;;;;;0.87;0.60;;;33.30;43.70;;;;;;5064160;28;20206;-73
2022/06/08 12:03:42;;;;;;;1.70;0.70;;;33.40;42.20;;;;;;5075540;28;20244;-73
2022/06/08 12:06:33;;;;;;;1.07;0.73;;;33.40;40.90;;;;;;5075860;28;20247;-73
2022/06/08 12:09:14;;;;;;;3.13;0.67;;;33.50;41.40;;;;;;5089064;28;20202;-73
2022/06/08 12:11:48;;;;;;;0.80;0.80;;;33.60;41.00;;;;;;5068733;28;20293;-73
2022/06/08 12:14:23;;;;;;;1.23;1.00;;;33.60;41.30;;;;;;5090496;28;20225;-74
2022/06/08 12:17:03;;;;;;;1.30;0.90;;;33.60;39.80;;;;;;5084252;28;20209;-73
2022/06/08 12:19:48;;;;;;;0.80;0.80;;;33.60;40.70;;;;;;5087389;28;20585;-73
2022/06/08 12:22:24;;;;;;;1.17;0.80;;;33.60;40.90;;;;;;5086202;28;20585;-73
2022/06/08 12:25:10;;;;;;;2.93;0.90;;;33.60;40.30;;;;;;5091932;28;20221;-73
2022/06/08 12:27:46;;;;;;;0.70;0.70;;;33.50;40.30;;;;;;5083141;28;20641;-73
2022/06/08 12:30:30;;;;;;;3.60;0.90;;;33.50;40.50;;;;;;5066519;28;20208;-74
2022/06/08 12:33:03;;;;;;;1.07;1.00;;;33.60;40.80;;;;;;5071812;28;20197;-73
2022/06/08 12:35:39;;;;;;;3.10;1.00;;;33.60;40.60;;;;;;5090231;28;20209;-74
2022/06/08 12:38:19;;;;;;;3.00;0.97;;;33.60;40.20;;;;;;5070178;28;20712;-73
2022/06/08 12:41:16;;;;;;;5.63;1.07;;;33.40;41.70;;;;;;5077841;28;20201;-74
2022/06/08 12:43:43;;;;;;;0.97;0.97;;;33.10;43.00;;;;;;5059659;28;20230;-73
2022/06/08 12:46:18;;;;;;;3.40;1.17;;;33.00;43.20;;;;;;5084259;28;20255;-73
2022/06/08 12:48:50;;;;;;;0.70;0.70;;;32.90;43.30;;;;;;5083288;28;20206;-73
2022/06/08 12:51:35;;;;;;;4.17;1.10;;;32.80;43.20;;;;;;5083042;28;20301;-74
2022/06/08 12:54:33;;;;;;;1.00;1.00;;;32.80;43.20;;;;;;5069859;28;20201;-73
2022/06/08 12:57:18;;;;;;;3.37;1.00;;;32.80;43.90;;;;;;5066731;28;20205;-73
2022/06/08 12:59:48;;;;;;;2.70;1.30;;;32.90;43.00;;;;;;5067669;28;20287;-73
2022/06/08 13:02:24;;;;;;;1.07;1.07;;;32.80;42.80;;;;;;5089082;28;20201;-73
2022/06/08 13:04:53;;;;;;;1.33;1.00;;;32.80;43.20;;;;;;5087303;28;20718;-74
2022/06/08 13:07:32;;;;;;;2.07;1.20;;;32.70;44.00;;;;;;5060217;28;20220;-73
2022/06/08 13:10:01;;;;;;;2.87;0.90;;;32.50;44.00;;;;;;5069125;28;20224;-73
2022/06/08 13:12:37;;;;;;;1.40;1.00;;;32.40;43.80;;;;;;5079060;28;20205;-73
2022/06/08 13:15:18;;;;;;;1.20;1.10;;;32.30;44.30;;;;;;5089339;28;20737;-74
2022/06/08 13:17:46;;;;;;;1.20;0.80;;;32.30;44.40;;;;;;5085329;28;20202;-74
2022/06/08 13:20:28;;;;;;;2.13;0.90;;;32.30;44.40;;;;;;5090202;28;20203;-74
2022/06/08 13:22:55;;;;;;;1.77;0.97;;;32.40;44.10;;;;;;5074934;28;20216;-74
2022/06/08 13:25:33;;;;;;;1.17;1.00;;;32.40;43.50;;;;;;5072676;28;20745;-74
2022/06/08 13:28:01;;;;;;;1.63;1.00;;;32.40;44.00;;;;;;5074562;28;20214;-74
2022/06/08 13:30:30;;;;;;;0.97;0.90;;;32.40;42.50;;;;;;5081520;28;20205;-74
2022/06/08 13:32:58;;;;;;;3.93;0.73;;;32.40;42.90;;;;;;5067350;28;20233;-73
2022/06/08 13:35:30;;;;;;;0.80;0.80;;;32.40;43.70;;;;;;5088652;28;20217;-74
2022/06/08 13:37:58;;;;;;;1.60;0.80;;;32.30;42.80;;;;;;5084616;28;20223;-73
2022/06/08 13:40:28;;;;;;;1.17;1.00;;;32.30;43.80;;;;;;5065191;28;20259;-74
2022/06/08 13:42:56;;;;;;;1.30;0.90;;;32.20;44.30;;;;;;5066320;28;20213;-74